createdAt,value
2022-08-26T00:00:57.012Z,99.90
2022-08-26T00:04:39.073Z,99.90
2022-08-26T00:08:21.386Z,99.90
2022-08-26T00:12:04.281Z,99.90
2022-08-26T00:15:47.036Z,99.90
2022-08-26T00:19:29.370Z,99.90
2022-08-26T00:23:11.561Z,99.90
2022-08-26T00:26:53.712Z,99.90
2022-08-26T00:30:35.771Z,99.90
2022-08-26T00:34:19.529Z,99.90
2022-08-26T00:38:02.338Z,99.90
2022-08-26T00:41:44.876Z,99.90
2022-08-26T00:45:27.563Z,99.90
2022-08-26T00:49:44.340Z,99.90
2022-08-26T00:53:30.359Z,99.90
2022-08-26T00:57:18.304Z,99.90
2022-08-26T01:01:01.033Z,99.90
2022-08-26T01:04:45.091Z,99.90
2022-08-26T01:08:27.901Z,99.90
2022-08-26T01:12:09.799Z,99.90
2022-08-26T01:15:56.462Z,99.90
2022-08-26T01:19:42.951Z,99.90
2022-08-26T01:23:31.339Z,99.90
2022-08-26T01:27:18.172Z,99.90
2022-08-26T01:31:03.672Z,99.90
2022-08-26T01:34:48.189Z,99.90
2022-08-26T01:38:30.827Z,99.90
2022-08-26T01:42:15.996Z,99.90
2022-08-26T01:46:00.906Z,99.90
2022-08-26T01:49:46.234Z,99.90
2022-08-26T01:53:28.461Z,99.90
2022-08-26T01:57:10.767Z,99.90
2022-08-26T02:00:53.016Z,99.90
2022-08-26T02:04:40.160Z,99.90
2022-08-26T02:08:34.831Z,99.90
2022-08-26T02:12:19.664Z,99.90
2022-08-26T02:16:04.112Z,99.90
2022-08-26T02:19:48.940Z,99.90
2022-08-26T02:23:31.413Z,99.90
2022-08-26T02:27:14.879Z,99.90
2022-08-26T02:30:57.001Z,99.90
2022-08-26T02:34:38.937Z,99.90
2022-08-26T02:38:21.283Z,99.90
2022-08-26T02:42:03.995Z,99.90
2022-08-26T02:45:46.192Z,99.90
2022-08-26T02:49:30.520Z,99.90
2022-08-26T02:53:13.380Z,99.90
2022-08-26T02:56:56.405Z,99.90
2022-08-26T03:00:52.763Z,99.90
2022-08-26T03:04:35.516Z,99.90
2022-08-26T03:08:17.638Z,99.90
2022-08-26T03:12:00.358Z,99.90
2022-08-26T03:15:42.352Z,99.90
2022-08-26T03:19:26.249Z,99.90
2022-08-26T03:23:09.092Z,99.90
2022-08-26T03:26:52.817Z,99.90
2022-08-26T03:30:45.073Z,99.90
2022-08-26T03:34:28.137Z,99.90
2022-08-26T03:38:10.915Z,99.90
2022-08-26T03:41:52.828Z,99.90
2022-08-26T03:45:36.580Z,99.90
2022-08-26T03:49:22.297Z,99.90
2022-08-26T03:53:04.538Z,99.90
2022-08-26T03:56:49.248Z,99.90
2022-08-26T04:00:31.174Z,99.90
2022-08-26T04:04:15.670Z,99.90
2022-08-26T04:07:57.783Z,99.90
2022-08-26T04:11:42.574Z,99.90
2022-08-26T04:15:24.789Z,99.90
2022-08-26T04:19:06.793Z,99.90
2022-08-26T04:22:49.222Z,99.90
2022-08-26T04:26:37.082Z,99.90
2022-08-26T04:30:22.240Z,99.90
2022-08-26T04:34:05.459Z,99.90
2022-08-26T04:37:49.081Z,99.90
2022-08-26T04:41:31.704Z,99.90
2022-08-26T04:45:14.180Z,99.90
2022-08-26T04:48:56.231Z,99.90
2022-08-26T04:52:38.246Z,99.90
2022-08-26T04:56:20.098Z,99.90
2022-08-26T05:00:04.047Z,99.90
2022-08-26T05:03:47.796Z,99.90
2022-08-26T05:07:30.323Z,99.90
2022-08-26T05:11:14.196Z,99.90
2022-08-26T05:14:56.579Z,99.90
2022-08-26T05:18:41.208Z,99.90
2022-08-26T05:22:25.302Z,99.90
2022-08-26T05:26:08.591Z,99.90
2022-08-26T05:30:15.858Z,99.90
2022-08-26T05:33:58.324Z,99.90
2022-08-26T05:37:40.631Z,99.90
2022-08-26T05:41:42.192Z,99.90
2022-08-26T05:45:27.046Z,99.90
2022-08-26T05:49:29.128Z,99.90
2022-08-26T05:53:55.060Z,99.90
2022-08-26T05:57:42.823Z,99.90
2022-08-26T06:01:50.570Z,99.90
2022-08-26T06:05:57.054Z,99.90
2022-08-26T06:09:44.841Z,99.90
2022-08-26T06:13:50.997Z,99.90
2022-08-26T06:17:35.822Z,99.90
2022-08-26T06:25:38.908Z,99.90
2022-08-26T06:43:29.290Z,99.90
2022-08-26T06:47:59.664Z,99.90
2022-08-26T06:51:42.476Z,99.90
2022-08-26T07:00:02.222Z,99.90
2022-08-26T07:03:47.350Z,99.00
2022-08-26T07:07:55.598Z,96.70
2022-08-26T07:11:39.704Z,96.60
2022-08-26T07:15:24.006Z,94.30
2022-08-26T07:19:38.717Z,92.80
2022-08-26T07:23:41.518Z,93.20
2022-08-26T07:27:24.788Z,91.80
2022-08-26T07:31:11.772Z,87.00
2022-08-26T07:34:57.313Z,84.60
2022-08-26T07:38:42.207Z,80.70
2022-08-26T07:42:25.723Z,77.30
2022-08-26T07:50:50.274Z,73.50
2022-08-26T07:54:45.822Z,67.60
2022-08-26T07:58:36.412Z,61.50
2022-08-26T08:02:29.282Z,63.80
2022-08-26T08:06:28.582Z,61.40
2022-08-26T08:10:18.110Z,59.00
2022-08-26T08:18:15.649Z,48.00
2022-08-26T08:22:37.926Z,50.60
2022-08-26T08:26:20.625Z,51.10
2022-08-26T08:34:05.852Z,45.00
2022-08-26T08:42:32.803Z,44.80
2022-08-26T08:46:19.433Z,44.20
2022-08-26T08:54:10.550Z,40.90
2022-08-26T08:58:39.849Z,35.30
2022-08-26T09:02:47.980Z,40.70
2022-08-26T09:06:36.126Z,39.40
2022-08-26T09:11:10.985Z,35.30
2022-08-26T09:19:18.830Z,37.30
2022-08-26T09:23:04.374Z,35.30
2022-08-26T09:26:52.657Z,33.10
2022-08-26T09:30:35.425Z,32.80
2022-08-26T09:34:42.624Z,31.00
2022-08-26T09:42:36.685Z,31.20
2022-08-26T09:46:43.740Z,32.10
2022-08-26T09:50:31.416Z,31.60
2022-08-26T09:54:36.815Z,33.00
2022-08-26T10:02:57.976Z,32.50
2022-08-26T10:07:21.600Z,31.30
2022-08-26T10:11:30.999Z,32.80
2022-08-26T10:15:19.749Z,34.10
2022-08-26T10:19:56.244Z,31.60
2022-08-26T10:24:16.717Z,32.70
2022-08-26T10:32:55.739Z,33.40
2022-08-26T10:41:26.915Z,32.50
2022-08-26T10:49:18.145Z,30.90
2022-08-26T10:53:33.762Z,32.00
2022-08-26T10:58:04.977Z,33.50
2022-08-26T11:02:33.828Z,36.00
2022-08-26T11:06:19.535Z,36.40
2022-08-26T11:10:46.553Z,37.30
2022-08-26T11:14:42.021Z,39.40
2022-08-26T11:18:40.949Z,39.50
2022-08-26T11:22:50.353Z,39.50
2022-08-26T11:26:55.652Z,40.60
2022-08-26T11:30:47.175Z,41.50
2022-08-26T11:34:52.085Z,41.80
2022-08-26T11:38:42.549Z,41.50
2022-08-26T11:42:45.092Z,41.00
2022-08-26T11:46:37.585Z,41.70
2022-08-26T11:55:09.313Z,42.30
2022-08-26T11:58:57.125Z,42.50
2022-08-26T12:06:51.073Z,42.90
2022-08-26T12:14:42.009Z,43.40
2022-08-26T12:22:48.247Z,42.60
2022-08-26T12:27:11.051Z,43.60
2022-08-26T12:34:58.065Z,43.70
2022-08-26T12:38:41.088Z,42.80
2022-08-26T12:42:48.638Z,43.90
2022-08-26T12:46:31.901Z,44.90
2022-08-26T12:50:43.911Z,44.30
2022-08-26T12:58:39.202Z,45.60
2022-08-26T13:06:30.187Z,46.20
2022-08-26T13:10:57.868Z,46.10
2022-08-26T13:14:40.623Z,46.40
2022-08-26T13:18:31.038Z,47.40
2022-08-26T13:22:20.531Z,47.30
2022-08-26T13:31:14.921Z,47.60
2022-08-26T13:39:10.451Z,47.80
2022-08-26T13:43:38.247Z,47.30
2022-08-26T13:51:33.647Z,48.20
2022-08-26T13:59:26.712Z,48.80
2022-08-26T14:03:55.410Z,48.40
2022-08-26T14:07:37.427Z,48.70
2022-08-26T14:15:25.418Z,49.10
2022-08-26T14:19:20.911Z,49.10
2022-08-26T14:23:14.393Z,49.50
2022-08-26T14:27:13.939Z,49.60
2022-08-26T14:30:58.358Z,49.10
2022-08-26T14:35:27.818Z,48.60
2022-08-26T14:43:22.399Z,49.40
2022-08-26T14:47:50.856Z,50.20
2022-08-26T14:51:32.846Z,50.50
2022-08-26T14:55:24.121Z,50.60
2022-08-26T14:59:07.433Z,51.30
2022-08-26T15:07:02.952Z,51.50
2022-08-26T15:11:40.524Z,52.10
2022-08-26T15:19:25.729Z,53.00
2022-08-26T15:23:53.199Z,53.30
2022-08-26T15:27:35.795Z,53.10
2022-08-26T15:32:02.905Z,53.10
2022-08-26T15:36:16.596Z,52.90
2022-08-26T15:39:58.805Z,53.20
2022-08-26T15:48:00.938Z,52.90
2022-08-26T15:52:05.488Z,53.30
2022-08-26T15:59:58.842Z,53.40
2022-08-26T16:07:51.022Z,53.70
2022-08-26T16:15:44.637Z,53.60
2022-08-26T16:20:12.274Z,53.30
2022-08-26T16:23:55.572Z,54.40
2022-08-26T16:31:43.009Z,55.80
2022-08-26T16:35:59.218Z,56.70
2022-08-26T16:39:45.269Z,56.70
2022-08-26T16:43:53.351Z,56.60
2022-08-26T16:51:48.919Z,57.30
2022-08-26T16:56:15.027Z,57.00
2022-08-26T16:59:57.386Z,56.60
2022-08-26T17:07:46.106Z,57.10
2022-08-26T17:12:01.733Z,57.40
2022-08-26T17:19:56.423Z,57.60
2022-08-26T17:24:25.038Z,58.70
2022-08-26T17:28:12.681Z,58.80
2022-08-26T17:32:20.189Z,58.70
2022-08-26T17:40:15.805Z,58.90
2022-08-26T17:48:18.351Z,59.40
2022-08-26T17:52:34.821Z,60.30
2022-08-26T18:00:30.052Z,60.80
2022-08-26T18:08:22.531Z,61.80
2022-08-26T18:16:18.938Z,62.10
2022-08-26T18:24:22.652Z,62.00
2022-08-26T18:28:37.813Z,63.20
2022-08-26T18:32:19.701Z,61.60
2022-08-26T18:36:33.915Z,64.40
2022-08-26T18:44:38.712Z,64.20
2022-08-26T18:48:56.790Z,66.20
2022-08-26T18:53:24.833Z,64.00
2022-08-26T18:57:07.159Z,65.90
2022-08-26T19:00:56.946Z,67.50
2022-08-26T19:04:39.508Z,68.30
2022-08-26T19:08:21.893Z,69.40
2022-08-26T19:12:13.198Z,69.10
2022-08-26T19:15:55.445Z,69.10
2022-08-26T19:19:37.862Z,70.40
2022-08-26T19:23:31.396Z,70.60
2022-08-26T19:27:15.066Z,71.50
2022-08-26T19:30:57.257Z,70.60
2022-08-26T19:34:39.258Z,71.40
2022-08-26T19:38:21.456Z,72.40
2022-08-26T19:42:03.512Z,72.60
2022-08-26T19:45:45.425Z,72.40
2022-08-26T19:49:27.403Z,72.00
2022-08-26T19:53:10.217Z,73.30
2022-08-26T19:56:52.179Z,73.90
2022-08-26T20:00:35.783Z,73.80
2022-08-26T20:04:17.892Z,73.90
2022-08-26T20:07:59.885Z,74.90
2022-08-26T20:11:41.774Z,74.50
2022-08-26T20:15:24.195Z,74.70
2022-08-26T20:19:24.931Z,75.80
2022-08-26T20:23:07.098Z,76.30
2022-08-26T20:26:49.886Z,76.60
2022-08-26T20:30:32.052Z,77.00
2022-08-26T20:34:15.955Z,76.80
2022-08-26T20:37:57.906Z,77.90
2022-08-26T20:41:41.155Z,79.00
2022-08-26T20:45:23.177Z,79.20
2022-08-26T20:49:07.398Z,78.60
2022-08-26T20:52:49.574Z,79.40
2022-08-26T20:56:31.549Z,80.50
2022-08-26T21:00:16.115Z,80.40
2022-08-26T21:03:59.958Z,80.50
2022-08-26T21:07:41.885Z,81.60
2022-08-26T21:11:23.953Z,82.70
2022-08-26T21:15:07.502Z,82.90
2022-08-26T21:18:50.155Z,83.20
2022-08-26T21:22:32.089Z,84.50
2022-08-26T21:26:16.811Z,84.30
2022-08-26T21:29:58.843Z,85.00
2022-08-26T21:33:41.741Z,85.70
2022-08-26T21:37:26.939Z,86.30
2022-08-26T21:41:12.175Z,85.90
2022-08-26T21:44:54.798Z,86.60
2022-08-26T21:48:37.126Z,87.60
2022-08-26T21:52:19.795Z,87.90
2022-08-26T21:56:06.907Z,88.20
2022-08-26T21:59:48.995Z,88.50
2022-08-26T22:03:31.290Z,89.60
2022-08-26T22:07:22.691Z,90.30
2022-08-26T22:11:05.649Z,90.30
2022-08-26T22:14:48.298Z,90.20
2022-08-26T22:18:30.819Z,90.80
2022-08-26T22:22:13.123Z,91.00
2022-08-26T22:25:56.051Z,91.00
2022-08-26T22:29:38.160Z,91.00
2022-08-26T22:33:20.308Z,91.60
2022-08-26T22:37:03.297Z,91.30
2022-08-26T22:40:48.524Z,91.20
2022-08-26T22:44:32.114Z,91.80
2022-08-26T22:48:18.059Z,91.90
2022-08-26T22:52:00.054Z,92.30
2022-08-26T22:55:43.605Z,92.10
2022-08-26T22:59:25.536Z,92.10
2022-08-26T23:03:08.343Z,92.20
2022-08-26T23:06:50.435Z,92.30
2022-08-26T23:10:33.032Z,92.70
2022-08-26T23:14:17.005Z,93.00
2022-08-26T23:17:59.126Z,93.20
2022-08-26T23:21:41.280Z,93.10
2022-08-26T23:25:24.381Z,93.80
2022-08-26T23:29:08.261Z,93.60
2022-08-26T23:32:51.310Z,93.90
2022-08-26T23:36:33.455Z,94.10
2022-08-26T23:40:26.947Z,94.40
2022-08-26T23:44:09.038Z,94.80
2022-08-26T23:47:51.310Z,95.20
2022-08-26T23:51:52.036Z,95.40
2022-08-26T23:55:36.316Z,95.50
2022-08-26T23:59:18.279Z,96.00
